sensor_id;sensor_type;location;lat;lon;timestamp;P1;durP1;ratioP1;P2;durP2;ratioP2
19927;SDS011;10126;50.876;4.470;2023-08-21T00:01:17;0.10;;;0.10;;
19927;SDS011;10126;50.876;4.470;2023-08-21T00:03:18;0.10;;;0.10;;
19927;SDS011;10126;50.876;4.470;2023-08-21T00:05:19;0.10;;;0.10;;
19927;SDS011;10126;50.876;4.470;2023-08-21T00:07:19;0.10;;;0.10;;
19927;SDS011;10126;50.876;4.470;2023-08-21T00:09:20;0.10;;;0.10;;
19927;SDS011;10126;50.876;4.470;2023-08-21T00:11:21;0.10;;;0.10;;
19927;SDS011;10126;50.876;4.470;2023-08-21T00:13:21;0.10;;;0.10;;
19927;SDS011;10126;50.876;4.470;2023-08-21T00:15:22;0.00;;;0.00;;
19927;SDS011;10126;50.876;4.470;2023-08-21T00:17:22;0.10;;;0.10;;
19927;SDS011;10126;50.876;4.470;2023-08-21T00:19:23;0.10;;;0.10;;
19927;SDS011;10126;50.876;4.470;2023-08-21T00:21:24;0.10;;;0.10;;
19927;SDS011;10126;50.876;4.470;2023-08-21T00:23:25;0.10;;;0.10;;
19927;SDS011;10126;50.876;4.470;2023-08-21T00:25:25;0.10;;;0.10;;
19927;SDS011;10126;50.876;4.470;2023-08-21T00:27:26;0.10;;;0.10;;
19927;SDS011;10126;50.876;4.470;2023-08-21T00:29:27;0.10;;;0.10;;
19927;SDS011;10126;50.876;4.470;2023-08-21T00:31:27;0.10;;;0.10;;
19927;SDS011;10126;50.876;4.470;2023-08-21T00:33:29;0.00;;;0.00;;
19927;SDS011;10126;50.876;4.470;2023-08-21T00:35:33;0.10;;;0.10;;
19927;SDS011;10126;50.876;4.470;2023-08-21T00:37:33;0.07;;;0.07;;
19927;SDS011;10126;50.876;4.470;2023-08-21T00:39:34;0.07;;;0.07;;
19927;SDS011;10126;50.876;4.470;2023-08-21T00:41:34;0.10;;;0.10;;
19927;SDS011;10126;50.876;4.470;2023-08-21T00:43:35;0.10;;;0.10;;
19927;SDS011;10126;50.876;4.470;2023-08-21T00:45:36;0.10;;;0.10;;
19927;SDS011;10126;50.876;4.470;2023-08-21T00:47:41;0.10;;;0.10;;
19927;SDS011;10126;50.876;4.470;2023-08-21T00:49:43;0.10;;;0.10;;
19927;SDS011;10126;50.876;4.470;2023-08-21T00:51:44;0.00;;;0.00;;
19927;SDS011;10126;50.876;4.470;2023-08-21T00:53:45;0.10;;;0.10;;
19927;SDS011;10126;50.876;4.470;2023-08-21T00:55:46;0.10;;;0.10;;
19927;SDS011;10126;50.876;4.470;2023-08-21T00:57:47;0.10;;;0.10;;
19927;SDS011;10126;50.876;4.470;2023-08-21T00:59:48;0.10;;;0.10;;
19927;SDS011;10126;50.876;4.470;2023-08-21T01:01:48;0.10;;;0.10;;
19927;SDS011;10126;50.876;4.470;2023-08-21T01:03:49;0.00;;;0.00;;
19927;SDS011;10126;50.876;4.470;2023-08-21T01:05:50;0.10;;;0.10;;
19927;SDS011;10126;50.876;4.470;2023-08-21T01:07:56;0.10;;;0.10;;
19927;SDS011;10126;50.876;4.470;2023-08-21T01:10:04;0.00;;;0.00;;
19927;SDS011;10126;50.876;4.470;2023-08-21T01:14:47;0.10;;;0.10;;
19927;SDS011;10126;50.876;4.470;2023-08-21T01:16:56;0.10;;;0.10;;
19927;SDS011;10126;50.876;4.470;2023-08-21T01:18:59;0.10;;;0.10;;
19927;SDS011;10126;50.876;4.470;2023-08-21T01:21:03;0.10;;;0.10;;
19927;SDS011;10126;50.876;4.470;2023-08-21T01:23:05;0.10;;;0.10;;
19927;SDS011;10126;50.876;4.470;2023-08-21T01:25:06;0.10;;;0.10;;
19927;SDS011;10126;50.876;4.470;2023-08-21T01:27:08;0.07;;;0.07;;
19927;SDS011;10126;50.876;4.470;2023-08-21T01:29:10;0.10;;;0.10;;
19927;SDS011;10126;50.876;4.470;2023-08-21T01:31:31;0.10;;;0.10;;
19927;SDS011;10126;50.876;4.470;2023-08-21T01:33:37;0.10;;;0.10;;
19927;SDS011;10126;50.876;4.470;2023-08-21T01:35:44;0.10;;;0.10;;
19927;SDS011;10126;50.876;4.470;2023-08-21T01:37:45;0.10;;;0.10;;
19927;SDS011;10126;50.876;4.470;2023-08-21T01:39:46;0.10;;;0.10;;
19927;SDS011;10126;50.876;4.470;2023-08-21T01:41:46;0.10;;;0.10;;
19927;SDS011;10126;50.876;4.470;2023-08-21T01:43:47;0.10;;;0.10;;
19927;SDS011;10126;50.876;4.470;2023-08-21T01:45:48;0.10;;;0.10;;
19927;SDS011;10126;50.876;4.470;2023-08-21T01:47:49;0.10;;;0.10;;
19927;SDS011;10126;50.876;4.470;2023-08-21T01:49:50;0.07;;;0.07;;
19927;SDS011;10126;50.876;4.470;2023-08-21T01:51:53;0.10;;;0.10;;
19927;SDS011;10126;50.876;4.470;2023-08-21T01:53:54;0.10;;;0.10;;
19927;SDS011;10126;50.876;4.470;2023-08-21T01:55:55;0.10;;;0.10;;
19927;SDS011;10126;50.876;4.470;2023-08-21T01:57:55;0.10;;;0.10;;
19927;SDS011;10126;50.876;4.470;2023-08-21T01:59:56;0.00;;;0.00;;
19927;SDS011;10126;50.876;4.470;2023-08-21T02:01:56;0.10;;;0.10;;
19927;SDS011;10126;50.876;4.470;2023-08-21T02:03:57;0.10;;;0.10;;
19927;SDS011;10126;50.876;4.470;2023-08-21T02:05:58;0.10;;;0.10;;
19927;SDS011;10126;50.876;4.470;2023-08-21T02:07:58;0.10;;;0.10;;
19927;SDS011;10126;50.876;4.470;2023-08-21T02:09:59;0.10;;;0.10;;
19927;SDS011;10126;50.876;4.470;2023-08-21T02:11:59;0.10;;;0.10;;
19927;SDS011;10126;50.876;4.470;2023-08-21T02:14:00;0.10;;;0.10;;
19927;SDS011;10126;50.876;4.470;2023-08-21T02:16:01;0.10;;;0.10;;
19927;SDS011;10126;50.876;4.470;2023-08-21T02:18:02;0.10;;;0.10;;
19927;SDS011;10126;50.876;4.470;2023-08-21T02:20:03;0.10;;;0.10;;
19927;SDS011;10126;50.876;4.470;2023-08-21T02:22:04;0.10;;;0.10;;
19927;SDS011;10126;50.876;4.470;2023-08-21T02:24:05;0.10;;;0.10;;
19927;SDS011;10126;50.876;4.470;2023-08-21T02:26:05;0.10;;;0.10;;
19927;SDS011;10126;50.876;4.470;2023-08-21T02:28:06;0.10;;;0.10;;
19927;SDS011;10126;50.876;4.470;2023-08-21T02:30:07;0.10;;;0.10;;
19927;SDS011;10126;50.876;4.470;2023-08-21T02:32:08;0.10;;;0.10;;
19927;SDS011;10126;50.876;4.470;2023-08-21T02:34:08;0.10;;;0.10;;
19927;SDS011;10126;50.876;4.470;2023-08-21T02:36:09;0.10;;;0.10;;
19927;SDS011;10126;50.876;4.470;2023-08-21T02:38:09;0.10;;;0.10;;
19927;SDS011;10126;50.876;4.470;2023-08-21T02:40:10;0.10;;;0.10;;
19927;SDS011;10126;50.876;4.470;2023-08-21T02:42:10;0.10;;;0.10;;
19927;SDS011;10126;50.876;4.470;2023-08-21T02:44:11;0.10;;;0.10;;
19927;SDS011;10126;50.876;4.470;2023-08-21T02:46:12;0.17;;;0.17;;
19927;SDS011;10126;50.876;4.470;2023-08-21T02:48:12;0.10;;;0.10;;
19927;SDS011;10126;50.876;4.470;2023-08-21T02:50:13;0.03;;;0.03;;
19927;SDS011;10126;50.876;4.470;2023-08-21T02:52:14;0.10;;;0.10;;
19927;SDS011;10126;50.876;4.470;2023-08-21T02:54:14;0.10;;;0.10;;
19927;SDS011;10126;50.876;4.470;2023-08-21T02:56:15;0.10;;;0.10;;
19927;SDS011;10126;50.876;4.470;2023-08-21T02:58:15;0.10;;;0.10;;
19927;SDS011;10126;50.876;4.470;2023-08-21T03:00:16;0.10;;;0.10;;
19927;SDS011;10126;50.876;4.470;2023-08-21T03:02:17;0.10;;;0.10;;
19927;SDS011;10126;50.876;4.470;2023-08-21T03:04:18;0.10;;;0.10;;
19927;SDS011;10126;50.876;4.470;2023-08-21T03:06:19;0.13;;;0.13;;
19927;SDS011;10126;50.876;4.470;2023-08-21T03:08:20;0.10;;;0.10;;
19927;SDS011;10126;50.876;4.470;2023-08-21T03:10:21;0.10;;;0.10;;
19927;SDS011;10126;50.876;4.470;2023-08-21T03:12:23;0.10;;;0.10;;
19927;SDS011;10126;50.876;4.470;2023-08-21T03:14:26;0.10;;;0.10;;
19927;SDS011;10126;50.876;4.470;2023-08-21T03:16:27;0.10;;;0.10;;
19927;SDS011;10126;50.876;4.470;2023-08-21T03:18:30;0.10;;;0.10;;
19927;SDS011;10126;50.876;4.470;2023-08-21T03:20:31;0.10;;;0.10;;
19927;SDS011;10126;50.876;4.470;2023-08-21T03:22:32;0.10;;;0.10;;
19927;SDS011;10126;50.876;4.470;2023-08-21T03:24:33;0.10;;;0.10;;
19927;SDS011;10126;50.876;4.470;2023-08-21T03:26:33;0.13;;;0.13;;
19927;SDS011;10126;50.876;4.470;2023-08-21T03:28:34;0.10;;;0.10;;
19927;SDS011;10126;50.876;4.470;2023-08-21T03:30:35;0.10;;;0.10;;
19927;SDS011;10126;50.876;4.470;2023-08-21T03:32:35;0.10;;;0.10;;
19927;SDS011;10126;50.876;4.470;2023-08-21T03:34:36;0.10;;;0.10;;
19927;SDS011;10126;50.876;4.470;2023-08-21T03:36:36;0.10;;;0.10;;
19927;SDS011;10126;50.876;4.470;2023-08-21T03:38:38;0.10;;;0.10;;
19927;SDS011;10126;50.876;4.470;2023-08-21T03:40:39;0.10;;;0.10;;
19927;SDS011;10126;50.876;4.470;2023-08-21T03:42:39;0.10;;;0.10;;
19927;SDS011;10126;50.876;4.470;2023-08-21T03:44:40;0.20;;;0.20;;
19927;SDS011;10126;50.876;4.470;2023-08-21T03:46:41;0.10;;;0.10;;
19927;SDS011;10126;50.876;4.470;2023-08-21T03:48:41;0.10;;;0.10;;
19927;SDS011;10126;50.876;4.470;2023-08-21T03:50:42;0.10;;;0.10;;
19927;SDS011;10126;50.876;4.470;2023-08-21T03:52:43;0.10;;;0.10;;
19927;SDS011;10126;50.876;4.470;2023-08-21T03:54:43;0.10;;;0.10;;
19927;SDS011;10126;50.876;4.470;2023-08-21T03:56:44;0.10;;;0.10;;
19927;SDS011;10126;50.876;4.470;2023-08-21T03:58:45;0.10;;;0.10;;
19927;SDS011;10126;50.876;4.470;2023-08-21T04:00:45;0.20;;;0.20;;
19927;SDS011;10126;50.876;4.470;2023-08-21T04:02:46;0.10;;;0.10;;
19927;SDS011;10126;50.876;4.470;2023-08-21T04:04:47;0.10;;;0.10;;
19927;SDS011;10126;50.876;4.470;2023-08-21T04:06:48;0.10;;;0.10;;
19927;SDS011;10126;50.876;4.470;2023-08-21T04:08:49;0.10;;;0.10;;
19927;SDS011;10126;50.876;4.470;2023-08-21T04:10:49;0.10;;;0.10;;
19927;SDS011;10126;50.876;4.470;2023-08-21T04:12:52;0.10;;;0.10;;
19927;SDS011;10126;50.876;4.470;2023-08-21T04:14:53;0.10;;;0.10;;
19927;SDS011;10126;50.876;4.470;2023-08-21T04:16:54;0.10;;;0.10;;
19927;SDS011;10126;50.876;4.470;2023-08-21T04:18:55;0.10;;;0.10;;
19927;SDS011;10126;50.876;4.470;2023-08-21T04:20:55;0.10;;;0.10;;
19927;SDS011;10126;50.876;4.470;2023-08-21T04:22:56;0.10;;;0.10;;
19927;SDS011;10126;50.876;4.470;2023-08-21T04:24:57;0.10;;;0.10;;
19927;SDS011;10126;50.876;4.470;2023-08-21T04:26:57;0.10;;;0.10;;
19927;SDS011;10126;50.876;4.470;2023-08-21T04:28:58;0.10;;;0.10;;
19927;SDS011;10126;50.876;4.470;2023-08-21T04:30:59;0.10;;;0.10;;
19927;SDS011;10126;50.876;4.470;2023-08-21T04:32:59;0.10;;;0.10;;
19927;SDS011;10126;50.876;4.470;2023-08-21T04:35:00;0.10;;;0.10;;
19927;SDS011;10126;50.876;4.470;2023-08-21T04:37:01;0.10;;;0.10;;
19927;SDS011;10126;50.876;4.470;2023-08-21T04:39:02;0.10;;;0.10;;
19927;SDS011;10126;50.876;4.470;2023-08-21T04:41:06;0.20;;;0.20;;
19927;SDS011;10126;50.876;4.470;2023-08-21T04:43:07;0.10;;;0.10;;
19927;SDS011;10126;50.876;4.470;2023-08-21T04:45:08;0.10;;;0.10;;
19927;SDS011;10126;50.876;4.470;2023-08-21T04:47:22;0.10;;;0.10;;
19927;SDS011;10126;50.876;4.470;2023-08-21T04:49:24;0.17;;;0.17;;
19927;SDS011;10126;50.876;4.470;2023-08-21T04:51:24;0.20;;;0.20;;
19927;SDS011;10126;50.876;4.470;2023-08-21T04:53:25;0.10;;;0.10;;
19927;SDS011;10126;50.876;4.470;2023-08-21T04:55:25;0.10;;;0.10;;
19927;SDS011;10126;50.876;4.470;2023-08-21T04:57:26;0.10;;;0.10;;
19927;SDS011;10126;50.876;4.470;2023-08-21T04:59:27;0.10;;;0.10;;
19927;SDS011;10126;50.876;4.470;2023-08-21T05:01:27;0.10;;;0.10;;
19927;SDS011;10126;50.876;4.470;2023-08-21T05:03:28;0.10;;;0.10;;
19927;SDS011;10126;50.876;4.470;2023-08-21T05:05:28;0.10;;;0.10;;
19927;SDS011;10126;50.876;4.470;2023-08-21T05:07:29;0.10;;;0.10;;
19927;SDS011;10126;50.876;4.470;2023-08-21T05:09:30;0.10;;;0.10;;
19927;SDS011;10126;50.876;4.470;2023-08-21T05:11:31;0.10;;;0.10;;
19927;SDS011;10126;50.876;4.470;2023-08-21T05:13:32;0.10;;;0.10;;
19927;SDS011;10126;50.876;4.470;2023-08-21T05:15:33;0.10;;;0.10;;
19927;SDS011;10126;50.876;4.470;2023-08-21T05:17:33;0.10;;;0.10;;
19927;SDS011;10126;50.876;4.470;2023-08-21T05:19:34;0.10;;;0.10;;
19927;SDS011;10126;50.876;4.470;2023-08-21T05:21:35;0.10;;;0.10;;
19927;SDS011;10126;50.876;4.470;2023-08-21T05:23:35;0.10;;;0.10;;
19927;SDS011;10126;50.876;4.470;2023-08-21T05:25:36;0.10;;;0.10;;
19927;SDS011;10126;50.876;4.470;2023-08-21T05:27:36;0.10;;;0.10;;
19927;SDS011;10126;50.876;4.470;2023-08-21T05:29:37;0.10;;;0.10;;
19927;SDS011;10126;50.876;4.470;2023-08-21T05:31:38;0.10;;;0.10;;
19927;SDS011;10126;50.876;4.470;2023-08-21T05:33:38;0.10;;;0.10;;
19927;SDS011;10126;50.876;4.470;2023-08-21T05:35:39;0.10;;;0.10;;
19927;SDS011;10126;50.876;4.470;2023-08-21T05:37:41;0.10;;;0.10;;
19927;SDS011;10126;50.876;4.470;2023-08-21T05:39:41;0.10;;;0.10;;
19927;SDS011;10126;50.876;4.470;2023-08-21T05:41:42;0.10;;;0.10;;
19927;SDS011;10126;50.876;4.470;2023-08-21T05:43:42;0.10;;;0.10;;
19927;SDS011;10126;50.876;4.470;2023-08-21T05:45:45;0.10;;;0.10;;
19927;SDS011;10126;50.876;4.470;2023-08-21T05:47:46;0.00;;;0.00;;
19927;SDS011;10126;50.876;4.470;2023-08-21T05:49:46;0.00;;;0.00;;
19927;SDS011;10126;50.876;4.470;2023-08-21T05:51:48;0.00;;;0.00;;
19927;SDS011;10126;50.876;4.470;2023-08-21T05:53:49;0.00;;;0.00;;
19927;SDS011;10126;50.876;4.470;2023-08-21T05:55:50;0.10;;;0.10;;
19927;SDS011;10126;50.876;4.470;2023-08-21T05:57:50;0.00;;;0.00;;
19927;SDS011;10126;50.876;4.470;2023-08-21T05:59:51;0.00;;;0.00;;
19927;SDS011;10126;50.876;4.470;2023-08-21T06:01:51;0.00;;;0.00;;
19927;SDS011;10126;50.876;4.470;2023-08-21T06:03:52;0.00;;;0.00;;
19927;SDS011;10126;50.876;4.470;2023-08-21T06:05:52;0.00;;;0.00;;
19927;SDS011;10126;50.876;4.470;2023-08-21T06:07:53;0.10;;;0.10;;
19927;SDS011;10126;50.876;4.470;2023-08-21T06:09:54;0.00;;;0.00;;
19927;SDS011;10126;50.876;4.470;2023-08-21T06:11:54;0.00;;;0.00;;
19927;SDS011;10126;50.876;4.470;2023-08-21T06:13:55;0.10;;;0.10;;
19927;SDS011;10126;50.876;4.470;2023-08-21T06:15:57;0.00;;;0.00;;
19927;SDS011;10126;50.876;4.470;2023-08-21T06:17:58;0.00;;;0.00;;
19927;SDS011;10126;50.876;4.470;2023-08-21T06:19:59;0.00;;;0.00;;
19927;SDS011;10126;50.876;4.470;2023-08-21T06:22:00;0.00;;;0.00;;
19927;SDS011;10126;50.876;4.470;2023-08-21T06:24:01;0.00;;;0.00;;
19927;SDS011;10126;50.876;4.470;2023-08-21T06:26:02;0.00;;;0.00;;
19927;SDS011;10126;50.876;4.470;2023-08-21T06:28:03;0.00;;;0.00;;
19927;SDS011;10126;50.876;4.470;2023-08-21T06:30:04;0.00;;;0.00;;
19927;SDS011;10126;50.876;4.470;2023-08-21T06:32:06;0.00;;;0.00;;
19927;SDS011;10126;50.876;4.470;2023-08-21T06:34:06;0.00;;;0.00;;
19927;SDS011;10126;50.876;4.470;2023-08-21T06:36:07;0.00;;;0.00;;
19927;SDS011;10126;50.876;4.470;2023-08-21T06:38:07;0.00;;;0.00;;
19927;SDS011;10126;50.876;4.470;2023-08-21T06:40:08;0.00;;;0.00;;
19927;SDS011;10126;50.876;4.470;2023-08-21T06:42:09;0.00;;;0.00;;
19927;SDS011;10126;50.876;4.470;2023-08-21T06:44:10;0.00;;;0.00;;
19927;SDS011;10126;50.876;4.470;2023-08-21T06:46:10;0.00;;;0.00;;
19927;SDS011;10126;50.876;4.470;2023-08-21T06:48:11;0.00;;;0.00;;
19927;SDS011;10126;50.876;4.470;2023-08-21T06:50:12;0.00;;;0.00;;
19927;SDS011;10126;50.876;4.470;2023-08-21T06:52:13;0.00;;;0.00;;
19927;SDS011;10126;50.876;4.470;2023-08-21T06:54:13;0.00;;;0.00;;
19927;SDS011;10126;50.876;4.470;2023-08-21T06:56:15;0.00;;;0.00;;
19927;SDS011;10126;50.876;4.470;2023-08-21T06:58:15;0.00;;;0.00;;
19927;SDS011;10126;50.876;4.470;2023-08-21T07:00:16;0.00;;;0.00;;
19927;SDS011;10126;50.876;4.470;2023-08-21T07:02:16;0.00;;;0.00;;
19927;SDS011;10126;50.876;4.470;2023-08-21T07:04:17;0.00;;;0.00;;
19927;SDS011;10126;50.876;4.470;2023-08-21T07:06:18;0.00;;;0.00;;
19927;SDS011;10126;50.876;4.470;2023-08-21T07:08:18;0.00;;;0.00;;
19927;SDS011;10126;50.876;4.470;2023-08-21T07:10:19;0.00;;;0.00;;
19927;SDS011;10126;50.876;4.470;2023-08-21T07:12:21;0.00;;;0.00;;
19927;SDS011;10126;50.876;4.470;2023-08-21T07:14:22;0.00;;;0.00;;
19927;SDS011;10126;50.876;4.470;2023-08-21T07:16:22;0.00;;;0.00;;
19927;SDS011;10126;50.876;4.470;2023-08-21T07:18:23;0.00;;;0.00;;
19927;SDS011;10126;50.876;4.470;2023-08-21T07:20:24;0.00;;;0.00;;
19927;SDS011;10126;50.876;4.470;2023-08-21T07:22:25;0.00;;;0.00;;
19927;SDS011;10126;50.876;4.470;2023-08-21T07:24:25;0.00;;;0.00;;
19927;SDS011;10126;50.876;4.470;2023-08-21T07:26:26;0.00;;;0.00;;
19927;SDS011;10126;50.876;4.470;2023-08-21T07:28:27;0.00;;;0.00;;
19927;SDS011;10126;50.876;4.470;2023-08-21T07:30:28;0.00;;;0.00;;
19927;SDS011;10126;50.876;4.470;2023-08-21T07:32:28;0.00;;;0.00;;
19927;SDS011;10126;50.876;4.470;2023-08-21T07:34:29;0.00;;;0.00;;
19927;SDS011;10126;50.876;4.470;2023-08-21T07:36:31;0.00;;;0.00;;
19927;SDS011;10126;50.876;4.470;2023-08-21T07:38:32;0.00;;;0.00;;
19927;SDS011;10126;50.876;4.470;2023-08-21T07:40:33;0.00;;;0.00;;
19927;SDS011;10126;50.876;4.470;2023-08-21T07:42:33;0.05;;;0.00;;
19927;SDS011;10126;50.876;4.470;2023-08-21T07:44:34;0.00;;;0.00;;
19927;SDS011;10126;50.876;4.470;2023-08-21T07:46:35;0.00;;;0.00;;
19927;SDS011;10126;50.876;4.470;2023-08-21T07:48:35;0.00;;;0.00;;
19927;SDS011;10126;50.876;4.470;2023-08-21T07:50:36;0.00;;;0.00;;
19927;SDS011;10126;50.876;4.470;2023-08-21T07:52:36;0.00;;;0.00;;
19927;SDS011;10126;50.876;4.470;2023-08-21T07:54:37;0.00;;;0.00;;
19927;SDS011;10126;50.876;4.470;2023-08-21T07:56:38;0.00;;;0.00;;
19927;SDS011;10126;50.876;4.470;2023-08-21T07:58:40;0.00;;;0.00;;
19927;SDS011;10126;50.876;4.470;2023-08-21T08:00:41;0.00;;;0.00;;
19927;SDS011;10126;50.876;4.470;2023-08-21T08:02:42;0.00;;;0.00;;
19927;SDS011;10126;50.876;4.470;2023-08-21T08:04:43;0.00;;;0.00;;
19927;SDS011;10126;50.876;4.470;2023-08-21T08:06:44;0.00;;;0.00;;
19927;SDS011;10126;50.876;4.470;2023-08-21T08:08:44;0.00;;;0.00;;
19927;SDS011;10126;50.876;4.470;2023-08-21T08:10:45;0.00;;;0.00;;
19927;SDS011;10126;50.876;4.470;2023-08-21T08:12:46;0.00;;;0.00;;
19927;SDS011;10126;50.876;4.470;2023-08-21T08:14:47;0.05;;;0.05;;
19927;SDS011;10126;50.876;4.470;2023-08-21T08:16:47;0.00;;;0.00;;
19927;SDS011;10126;50.876;4.470;2023-08-21T08:18:48;0.00;;;0.00;;
19927;SDS011;10126;50.876;4.470;2023-08-21T08:20:49;0.00;;;0.00;;
19927;SDS011;10126;50.876;4.470;2023-08-21T08:22:49;0.00;;;0.00;;
19927;SDS011;10126;50.876;4.470;2023-08-21T08:24:50;0.00;;;0.00;;
19927;SDS011;10126;50.876;4.470;2023-08-21T08:26:51;0.00;;;0.00;;
19927;SDS011;10126;50.876;4.470;2023-08-21T08:28:53;0.00;;;0.00;;
19927;SDS011;10126;50.876;4.470;2023-08-21T08:30:53;0.00;;;0.00;;
19927;SDS011;10126;50.876;4.470;2023-08-21T08:32:54;0.00;;;0.00;;
19927;SDS011;10126;50.876;4.470;2023-08-21T08:34:55;0.00;;;0.00;;
19927;SDS011;10126;50.876;4.470;2023-08-21T08:36:55;0.00;;;0.00;;
19927;SDS011;10126;50.876;4.470;2023-08-21T08:38:56;0.00;;;0.00;;
19927;SDS011;10126;50.876;4.470;2023-08-21T08:40:56;0.00;;;0.00;;
19927;SDS011;10126;50.876;4.470;2023-08-21T08:42:58;0.00;;;0.00;;
19927;SDS011;10126;50.876;4.470;2023-08-21T08:44:58;0.00;;;0.00;;
19927;SDS011;10126;50.876;4.470;2023-08-21T08:47:03;0.00;;;0.00;;
19927;SDS011;10126;50.876;4.470;2023-08-21T08:49:04;0.00;;;0.00;;
19927;SDS011;10126;50.876;4.470;2023-08-21T08:51:05;0.00;;;0.00;;
19927;SDS011;10126;50.876;4.470;2023-08-21T08:53:06;0.00;;;0.00;;
19927;SDS011;10126;50.876;4.470;2023-08-21T08:55:08;0.00;;;0.00;;
19927;SDS011;10126;50.876;4.470;2023-08-21T08:57:09;0.00;;;0.00;;
19927;SDS011;10126;50.876;4.470;2023-08-21T08:59:09;0.00;;;0.00;;
19927;SDS011;10126;50.876;4.470;2023-08-21T09:01:10;0.00;;;0.00;;
19927;SDS011;10126;50.876;4.470;2023-08-21T09:03:10;0.00;;;0.00;;
19927;SDS011;10126;50.876;4.470;2023-08-21T09:05:12;0.00;;;0.00;;
19927;SDS011;10126;50.876;4.470;2023-08-21T09:07:13;0.00;;;0.00;;
19927;SDS011;10126;50.876;4.470;2023-08-21T09:09:19;0.03;;;0.03;;
19927;SDS011;10126;50.876;4.470;2023-08-21T09:11:19;0.00;;;0.00;;
19927;SDS011;10126;50.876;4.470;2023-08-21T09:13:20;0.00;;;0.00;;
19927;SDS011;10126;50.876;4.470;2023-08-21T09:15:21;0.00;;;0.00;;
19927;SDS011;10126;50.876;4.470;2023-08-21T09:17:28;0.00;;;0.00;;
19927;SDS011;10126;50.876;4.470;2023-08-21T09:19:30;0.00;;;0.00;;
19927;SDS011;10126;50.876;4.470;2023-08-21T09:21:30;0.00;;;0.00;;
19927;SDS011;10126;50.876;4.470;2023-08-21T09:23:31;0.00;;;0.00;;
19927;SDS011;10126;50.876;4.470;2023-08-21T09:25:41;0.00;;;0.00;;
19927;SDS011;10126;50.876;4.470;2023-08-21T09:27:48;0.00;;;0.00;;
19927;SDS011;10126;50.876;4.470;2023-08-21T09:29:52;0.00;;;0.00;;
19927;SDS011;10126;50.876;4.470;2023-08-21T09:31:55;0.00;;;0.00;;
19927;SDS011;10126;50.876;4.470;2023-08-21T09:33:57;0.00;;;0.00;;
19927;SDS011;10126;50.876;4.470;2023-08-21T09:35:59;0.00;;;0.00;;
19927;SDS011;10126;50.876;4.470;2023-08-21T09:37:59;0.00;;;0.00;;
19927;SDS011;10126;50.876;4.470;2023-08-21T09:40:00;0.00;;;0.00;;
19927;SDS011;10126;50.876;4.470;2023-08-21T09:42:07;0.00;;;0.00;;
19927;SDS011;10126;50.876;4.470;2023-08-21T09:44:07;0.00;;;0.00;;
19927;SDS011;10126;50.876;4.470;2023-08-21T09:46:08;0.10;;;0.10;;
19927;SDS011;10126;50.876;4.470;2023-08-21T09:48:13;0.00;;;0.00;;
19927;SDS011;10126;50.876;4.470;2023-08-21T09:50:15;0.00;;;0.00;;
19927;SDS011;10126;50.876;4.470;2023-08-21T09:52:15;0.00;;;0.00;;
19927;SDS011;10126;50.876;4.470;2023-08-21T09:54:16;0.00;;;0.00;;
19927;SDS011;10126;50.876;4.470;2023-08-21T09:56:19;0.00;;;0.00;;
19927;SDS011;10126;50.876;4.470;2023-08-21T09:58:20;0.00;;;0.00;;
19927;SDS011;10126;50.876;4.470;2023-08-21T10:00:21;0.00;;;0.00;;
19927;SDS011;10126;50.876;4.470;2023-08-21T10:02:22;0.00;;;0.00;;
19927;SDS011;10126;50.876;4.470;2023-08-21T10:04:24;0.00;;;0.00;;
19927;SDS011;10126;50.876;4.470;2023-08-21T10:06:25;0.10;;;0.00;;
19927;SDS011;10126;50.876;4.470;2023-08-21T10:08:26;0.00;;;0.00;;
19927;SDS011;10126;50.876;4.470;2023-08-21T10:10:28;0.00;;;0.00;;
19927;SDS011;10126;50.876;4.470;2023-08-21T10:12:31;0.00;;;0.00;;
19927;SDS011;10126;50.876;4.470;2023-08-21T10:14:32;0.00;;;0.00;;
19927;SDS011;10126;50.876;4.470;2023-08-21T10:16:33;0.00;;;0.00;;
19927;SDS011;10126;50.876;4.470;2023-08-21T10:18:35;0.00;;;0.00;;
19927;SDS011;10126;50.876;4.470;2023-08-21T10:20:36;0.00;;;0.00;;
19927;SDS011;10126;50.876;4.470;2023-08-21T10:23:01;0.00;;;0.00;;
19927;SDS011;10126;50.876;4.470;2023-08-21T10:25:04;0.00;;;0.00;;
19927;SDS011;10126;50.876;4.470;2023-08-21T10:27:16;0.00;;;0.00;;
19927;SDS011;10126;50.876;4.470;2023-08-21T10:29:30;0.00;;;0.00;;
19927;SDS011;10126;50.876;4.470;2023-08-21T10:31:58;0.00;;;0.00;;
19927;SDS011;10126;50.876;4.470;2023-08-21T10:34:01;0.00;;;0.00;;
19927;SDS011;10126;50.876;4.470;2023-08-21T10:36:03;0.00;;;0.00;;
19927;SDS011;10126;50.876;4.470;2023-08-21T10:38:14;0.00;;;0.00;;
19927;SDS011;10126;50.876;4.470;2023-08-21T10:40:21;0.00;;;0.00;;
19927;SDS011;10126;50.876;4.470;2023-08-21T10:42:39;0.00;;;0.00;;
19927;SDS011;10126;50.876;4.470;2023-08-21T10:44:54;0.00;;;0.00;;
19927;SDS011;10126;50.876;4.470;2023-08-21T10:49:18;0.00;;;0.00;;
19927;SDS011;10126;50.876;4.470;2023-08-21T10:51:19;0.00;;;0.00;;
19927;SDS011;10126;50.876;4.470;2023-08-21T10:53:20;0.00;;;0.00;;
19927;SDS011;10126;50.876;4.470;2023-08-21T10:55:23;0.08;;;0.00;;
19927;SDS011;10126;50.876;4.470;2023-08-21T10:57:25;0.00;;;0.00;;
19927;SDS011;10126;50.876;4.470;2023-08-21T10:59:26;0.00;;;0.00;;
19927;SDS011;10126;50.876;4.470;2023-08-21T11:01:40;0.00;;;0.00;;
19927;SDS011;10126;50.876;4.470;2023-08-21T11:03:46;0.00;;;0.00;;
19927;SDS011;10126;50.876;4.470;2023-08-21T11:05:59;0.00;;;0.00;;
19927;SDS011;10126;50.876;4.470;2023-08-21T11:08:04;0.00;;;0.00;;
19927;SDS011;10126;50.876;4.470;2023-08-21T11:10:06;0.00;;;0.00;;
19927;SDS011;10126;50.876;4.470;2023-08-21T11:12:09;0.00;;;0.00;;
19927;SDS011;10126;50.876;4.470;2023-08-21T11:14:12;0.00;;;0.00;;
19927;SDS011;10126;50.876;4.470;2023-08-21T11:16:13;0.10;;;0.10;;
19927;SDS011;10126;50.876;4.470;2023-08-21T11:18:14;0.00;;;0.00;;
19927;SDS011;10126;50.876;4.470;2023-08-21T11:20:14;0.00;;;0.00;;
19927;SDS011;10126;50.876;4.470;2023-08-21T11:22:15;0.00;;;0.00;;
19927;SDS011;10126;50.876;4.470;2023-08-21T11:24:16;0.00;;;0.00;;
19927;SDS011;10126;50.876;4.470;2023-08-21T11:26:16;0.00;;;0.00;;
19927;SDS011;10126;50.876;4.470;2023-08-21T11:28:17;0.00;;;0.00;;
19927;SDS011;10126;50.876;4.470;2023-08-21T11:30:18;0.00;;;0.00;;
19927;SDS011;10126;50.876;4.470;2023-08-21T11:32:20;0.00;;;0.00;;
19927;SDS011;10126;50.876;4.470;2023-08-21T11:34:22;0.00;;;0.00;;
19927;SDS011;10126;50.876;4.470;2023-08-21T11:36:22;0.00;;;0.00;;
19927;SDS011;10126;50.876;4.470;2023-08-21T11:38:23;0.00;;;0.00;;
19927;SDS011;10126;50.876;4.470;2023-08-21T11:40:25;0.00;;;0.00;;
19927;SDS011;10126;50.876;4.470;2023-08-21T11:42:30;0.00;;;0.00;;
19927;SDS011;10126;50.876;4.470;2023-08-21T11:44:32;0.00;;;0.00;;
19927;SDS011;10126;50.876;4.470;2023-08-21T11:46:33;0.00;;;0.00;;
19927;SDS011;10126;50.876;4.470;2023-08-21T11:48:36;0.00;;;0.00;;
19927;SDS011;10126;50.876;4.470;2023-08-21T11:50:38;0.00;;;0.00;;
19927;SDS011;10126;50.876;4.470;2023-08-21T11:52:39;0.00;;;0.00;;
19927;SDS011;10126;50.876;4.470;2023-08-21T11:54:41;0.00;;;0.00;;
19927;SDS011;10126;50.876;4.470;2023-08-21T11:56:41;0.10;;;0.10;;
19927;SDS011;10126;50.876;4.470;2023-08-21T11:58:43;0.00;;;0.00;;
19927;SDS011;10126;50.876;4.470;2023-08-21T12:00:49;0.00;;;0.00;;
19927;SDS011;10126;50.876;4.470;2023-08-21T12:02:56;0.00;;;0.00;;
19927;SDS011;10126;50.876;4.470;2023-08-21T12:05:05;0.00;;;0.00;;
19927;SDS011;10126;50.876;4.470;2023-08-21T12:07:07;0.10;;;0.10;;
19927;SDS011;10126;50.876;4.470;2023-08-21T12:09:07;0.00;;;0.00;;
19927;SDS011;10126;50.876;4.470;2023-08-21T12:11:08;0.00;;;0.00;;
19927;SDS011;10126;50.876;4.470;2023-08-21T12:13:08;0.00;;;0.00;;
19927;SDS011;10126;50.876;4.470;2023-08-21T12:15:09;0.00;;;0.00;;
19927;SDS011;10126;50.876;4.470;2023-08-21T12:17:10;0.00;;;0.00;;
19927;SDS011;10126;50.876;4.470;2023-08-21T12:19:11;0.00;;;0.00;;